Time;durP1;ratioP1;P1;durP2;ratioP2;P2;SDS_P1;SDS_P2;PMS_P1;PMS_P2;Temp;Humidity;BMP_temperature;BMP_pressure;BME280_temperature;BME280_humidity;BME280_pressure;Samples;Min_cycle;Max_cycle;Signal;HPM_P1;HPM_P2
2021/10/26 00:02:05;;;;;;;0.10;0.10;;;;;;;8.50;48.63;99194.90;115554;1217;22408;-84
2021/10/26 00:04:37;;;;;;;0.00;0.00;;;;;;;8.49;48.48;99193.11;115387;1217;137246;-84
2021/10/26 00:07:42;;;;;;;0.10;0.10;;;;;;;8.48;48.52;99195.76;115408;1217;137622;-85
2021/10/26 00:10:48;;;;;;;0.00;0.00;;;;;;;8.47;48.61;99187.08;115509;1217;137489;-87
2021/10/26 00:13:58;;;;;;;0.10;0.10;;;;;;;8.45;48.83;99186.21;115467;1217;137437;-88
2021/10/26 00:17:24;;;;;;;0.10;0.10;;;;;;;8.43;49.20;99190.41;115512;1217;137891;-87
2021/10/26 00:20:38;;;;;;;0.00;0.00;;;;;;;8.42;49.28;99185.98;115483;1216;137737;-86
2021/10/26 00:24:05;;;;;;;0.10;0.10;;;;;;;8.40;49.44;99181.95;115485;1215;137353;-86
2021/10/26 00:27:31;;;;;;;0.00;0.00;;;;;;;8.39;49.57;99183.67;115494;1217;138110;-88
2021/10/26 00:30:56;;;;;;;0.00;0.00;;;;;;;8.38;49.33;99178.84;115493;1217;137167;-88
2021/10/26 00:34:03;;;;;;;0.00;0.00;;;;;;;8.37;49.81;99183.71;115476;1217;137456;-88
2021/10/26 00:37:29;;;;;;;0.10;0.10;;;;;;;8.35;50.10;99179.58;115473;1217;138124;-86
2021/10/26 00:40:54;;;;;;;0.10;0.10;;;;;;;8.34;49.50;99174.98;115488;1216;137552;-88
2021/10/26 00:44:20;;;;;;;0.10;0.10;;;;;;;8.32;50.08;99173.26;115503;1217;137326;-86
2021/10/26 00:47:45;;;;;;;0.10;0.10;;;;;;;8.31;49.94;99172.02;115469;1218;137401;-87
2021/10/26 00:51:11;;;;;;;0.10;0.10;;;;;;;8.30;50.19;99165.70;115464;1218;137500;-88
2021/10/26 00:54:18;;;;;;;0.00;0.00;;;;;;;8.28;50.29;99163.92;115456;1217;137453;-85
2021/10/26 00:57:44;;;;;;;0.10;0.10;;;;;;;8.27;50.19;99160.94;115459;1218;137700;-89
2021/10/26 01:00:30;;;;;;;0.10;0.10;;;;;;;8.25;50.44;99154.88;115485;1217;137173;-87
2021/10/26 01:03:35;;;;;;;0.10;0.10;;;;;;;8.23;49.98;99152.69;115367;1217;137457;-87
2021/10/26 01:07:00;;;;;;;0.00;0.00;;;;;;;8.21;50.03;99151.35;115495;1217;137197;-88
2021/10/26 01:10:27;;;;;;;0.00;0.00;;;;;;;8.19;49.94;99150.44;115464;1217;137422;-88
2021/10/26 01:13:53;;;;;;;0.00;0.00;;;;;;;8.18;50.18;99150.70;115498;1217;137230;-89
2021/10/26 01:17:25;;;;;;;0.10;0.10;;;;;;;8.16;50.21;99152.55;115497;1217;137078;-89
2021/10/26 01:20:53;;;;;;;0.10;0.10;;;;;;;8.13;50.14;99147.52;115447;1217;136937;-89
2021/10/26 01:24:25;;;;;;;0.00;0.00;;;;;;;8.07;50.73;99143.40;115486;1217;137471;-89
2021/10/26 01:27:54;;;;;;;0.10;0.10;;;;;;;8.06;50.58;99133.86;115436;1217;137242;-88
2021/10/26 01:31:19;;;;;;;0.00;0.00;;;;;;;8.03;51.16;99132.64;115468;1217;137486;-87
2021/10/26 01:34:28;;;;;;;0.10;0.10;;;;;;;7.99;51.09;99127.17;115466;1217;137323;-87
2021/10/26 01:37:17;;;;;;;0.00;0.00;;;;;;;7.96;51.06;99128.42;115501;1217;137437;-87
2021/10/26 01:40:23;;;;;;;0.10;0.10;;;;;;;7.95;50.74;99118.52;115462;1217;137289;-87
2021/10/26 01:43:53;;;;;;;0.10;0.10;;;;;;;7.94;50.76;99112.83;115440;1217;137419;-89
2021/10/26 01:47:16;;;;;;;0.00;0.00;;;;;;;7.93;51.04;99112.45;115487;1217;136991;-89
2021/10/26 01:50:42;;;;;;;0.10;0.10;;;;;;;7.91;50.95;99110.75;115605;1217;23002;-89
2021/10/26 01:54:08;;;;;;;0.10;0.10;;;;;;;7.86;51.43;99112.96;115502;1217;137018;-89
2021/10/26 01:57:34;;;;;;;0.10;0.10;;;;;;;7.83;51.27;99107.66;115494;1217;137539;-89
2021/10/26 02:01:00;;;;;;;0.10;0.10;;;;;;;7.79;51.45;99106.39;115501;1217;137362;-89
2021/10/26 02:04:26;;;;;;;0.10;0.10;;;;;;;7.76;51.62;99107.30;115474;1217;137591;-89
2021/10/26 02:07:54;;;;;;;0.00;0.00;;;;;;;7.74;51.94;99105.02;115469;1217;137348;-87
2021/10/26 02:11:26;;;;;;;0.00;0.00;;;;;;;7.71;51.75;99101.31;115485;1217;137237;-90
2021/10/26 02:14:52;;;;;;;0.10;0.10;;;;;;;7.66;52.56;99100.95;115505;1217;22792;-90
2021/10/26 02:18:24;;;;;;;0.00;0.00;;;;;;;7.61;52.67;99097.80;115474;1217;137045;-90
2021/10/26 02:21:43;;;;;;;0.10;0.10;;;;;;;7.58;53.36;99092.34;115514;1206;137937;-89
2021/10/26 02:25:13;;;;;;;0.10;0.10;;;;;;;7.56;52.44;99088.43;115510;1216;137130;-89
2021/10/26 02:28:39;;;;;;;0.00;0.00;;;;;;;7.53;53.44;99089.58;115493;1217;137248;-86
2021/10/26 02:32:07;;;;;;;0.00;0.00;;;;;;;7.50;52.86;99092.58;115526;1217;137581;-88
2021/10/26 02:35:46;;;;;;;;;;;;;;;;;;;;;
2021/10/26 02:38:59;;;;;;;0.10;0.10;;;;;;;7.42;54.04;99092.48;115502;1206;137036;-89
2021/10/26 02:42:25;;;;;;;0.00;0.00;;;;;;;7.38;53.25;99092.37;115455;1218;137416;-89
2021/10/26 02:45:51;;;;;;;0.00;0.00;;;;;;;7.36;53.65;99090.88;115426;1217;137187;-88
2021/10/26 02:49:20;;;;;;;0.10;0.10;;;;;;;7.33;53.82;99091.79;115430;1217;137217;-88
2021/10/26 02:52:46;;;;;;;0.10;0.10;;;;;;;7.29;53.90;99090.67;115402;1219;137262;-88
2021/10/26 02:56:12;;;;;;;0.10;0.10;;;;;;;7.26;53.90;99089.92;115433;1219;137153;-88
2021/10/26 02:59:38;;;;;;;0.10;0.10;;;;;;;7.23;54.06;99089.55;115442;1219;137267;-88
2021/10/26 03:03:04;;;;;;;0.10;0.10;;;;;;;7.20;54.08;99090.96;115417;1217;137267;-89
2021/10/26 03:06:30;;;;;;;0.00;0.00;;;;;;;7.15;54.24;99086.66;115406;1218;137505;-88
2021/10/26 03:09:56;;;;;;;0.00;0.00;;;;;;;7.12;54.47;99084.64;115423;1217;137162;-89
2021/10/26 03:16:58;;;;;;;0.10;0.10;;;;;;;7.02;54.87;99081.58;115340;1218;137538;-89
2021/10/26 03:20:24;;;;;;;0.10;0.10;;;;;;;6.98;55.60;99080.52;115426;1218;137757;-88
2021/10/26 03:23:50;;;;;;;0.10;0.10;;;;;;;6.95;55.44;99075.55;115438;1217;137333;-88
2021/10/26 03:27:28;;;;;;;0.10;0.10;;;;;;;6.93;55.27;99078.59;115411;1217;137220;-88
2021/10/26 03:30:54;;;;;;;0.00;0.00;;;;;;;6.87;55.71;99078.80;115422;1217;137142;-88
2021/10/26 03:40:20;;;;;;;0.10;0.10;;;;;;;6.70;57.16;99084.95;111791;1206;22318;-88
2021/10/26 03:43:46;;;;;;;0.00;0.00;;;;;;;6.66;57.30;99088.85;115487;1217;137789;-88
2021/10/26 03:47:11;;;;;;;0.10;0.10;;;;;;;6.66;57.11;99089.81;115479;1216;137329;-88
2021/10/26 03:50:17;;;;;;;0.10;0.10;;;;;;;6.64;56.91;99088.73;115512;1212;137342;-88
2021/10/26 03:53:43;;;;;;;0.00;0.00;;;;;;;6.64;57.10;99090.93;115623;1217;22113;-87
2021/10/26 03:56:51;;;;;;;0.00;0.00;;;;;;;6.60;57.58;99089.59;115492;1217;137435;-87
2021/10/26 04:00:04;;;;;;;0.00;0.00;;;;;;;6.59;57.45;99087.77;115450;1217;137438;-88
2021/10/26 04:03:30;;;;;;;0.00;0.00;;;;;;;6.57;57.69;99089.37;115484;1216;137633;-88
2021/10/26 04:06:55;;;;;;;0.10;0.10;;;;;;;6.54;58.01;99086.80;115502;1216;137330;-88
2021/10/26 04:10:32;;;;;;;0.00;0.00;;;;;;;6.54;57.88;99089.26;115501;1216;137552;-88
2021/10/26 04:13:47;;;;;;;0.00;0.00;;;;;;;6.55;58.17;99085.95;115513;1202;137313;-88
2021/10/26 04:17:13;;;;;;;0.00;0.00;;;;;;;6.59;57.78;99085.78;115498;1217;136965;-88
2021/10/26 04:20:39;;;;;;;0.10;0.10;;;;;;;6.61;57.65;99086.65;115516;1217;137372;-90
2021/10/26 04:24:05;;;;;;;0.00;0.00;;;;;;;6.61;57.36;99084.23;115469;1216;137423;-88
2021/10/26 04:27:30;;;;;;;0.00;0.00;;;;;;;6.62;57.46;99088.89;115487;1217;137425;-87
2021/10/26 04:31:00;;;;;;;0.00;0.00;;;;;;;6.62;57.32;99080.98;115492;1205;137165;-88
2021/10/26 04:34:22;;;;;;;0.00;0.00;;;;;;;6.62;57.24;99084.66;115442;1217;137244;-88
2021/10/26 04:37:48;;;;;;;0.00;0.00;;;;;;;6.61;57.62;99083.29;115483;1217;137321;-89
2021/10/26 04:41:14;;;;;;;0.00;0.00;;;;;;;6.61;57.03;99079.11;115410;1219;137417;-89
2021/10/26 04:44:40;;;;;;;0.00;0.00;;;;;;;6.61;57.25;99080.55;115402;1218;137443;-89
2021/10/26 04:48:06;;;;;;;0.00;0.00;;;;;;;6.58;57.23;99077.06;115409;1218;137409;-88
2021/10/26 04:51:32;;;;;;;0.00;0.00;;;;;;;6.53;57.48;99077.11;115418;1219;137418;-87
2021/10/26 04:54:58;;;;;;;0.00;0.00;;;;;;;6.51;57.89;99078.12;115394;1218;137210;-88
2021/10/26 04:58:23;;;;;;;0.10;0.10;;;;;;;6.50;57.82;99086.46;115420;1218;137194;-88
2021/10/26 05:23:05;;;;;;;0.00;0.00;;;;;;;6.40;58.03;99079.48;115483;1216;22316;-87
2021/10/26 05:26:16;;;;;;;0.00;0.00;;;;;;;6.40;58.33;99084.52;115421;1217;138070;-89
2021/10/26 05:29:39;;;;;;;0.10;0.10;;;;;;;6.40;58.49;99084.02;115385;1218;137155;-89
2021/10/26 05:32:29;;;;;;;0.10;0.10;;;;;;;6.41;57.80;99084.85;115508;1218;22294;-87
2021/10/26 05:35:04;;;;;;;0.10;0.10;;;;;;;6.42;58.48;99091.16;115392;1217;137221;-88
2021/10/26 05:37:31;;;;;;;0.00;0.00;;;;;;;6.41;58.02;99100.52;115570;1218;22451;-86
2021/10/26 06:29:07;;;;;;;0.00;0.00;;;;;;;6.72;57.32;99150.41;115495;1207;137056;-87
2021/10/26 07:26:46;;;;;;;0.10;0.10;;;;;;;7.97;54.78;99182.05;113837;1205;138417;-88
2021/10/26 10:36:52;;;;;;;0.20;0.20;;;;;;;13.76;40.79;99119.46;114198;1206;136849;-87
2021/10/26 16:04:17;;;;;;;0.20;0.20;;;;;;;13.84;37.46;99039.15;115519;1205;137150;-86
2021/10/26 16:06:45;;;;;;;0.20;0.20;;;;;;;13.58;37.22;99046.66;115452;1216;137382;-85
2021/10/26 16:09:12;;;;;;;0.10;0.10;;;;;;;13.38;38.19;99056.41;115511;1212;137008;-85
2021/10/26 16:11:47;;;;;;;0.20;0.20;;;;;;;13.17;38.52;99059.42;115456;1217;137308;-86
2021/10/26 16:58:48;;;;;;;0.10;0.10;;;;;;;10.72;44.39;99089.17;115465;1206;137087;-88
2021/10/26 17:02:16;;;;;;;0.20;0.20;;;;;;;10.63;44.79;99093.45;115485;1217;136787;-88
2021/10/26 17:05:40;;;;;;;0.20;0.20;;;;;;;10.53;45.14;99097.09;115507;1213;137128;-88
2021/10/26 17:09:08;;;;;;;0.10;0.10;;;;;;;10.43;45.64;99099.82;115433;1217;137635;-88
2021/10/26 17:12:33;;;;;;;0.10;0.10;;;;;;;10.33;45.69;99110.35;115362;1203;137265;-88
2021/10/26 17:16:01;;;;;;;0.10;0.10;;;;;;;10.23;45.93;99109.33;115437;1218;136979;-88
2021/10/26 17:19:26;;;;;;;0.10;0.10;;;;;;;10.13;46.07;99102.66;115401;1218;137303;-88
2021/10/26 17:22:13;;;;;;;0.10;0.10;;;;;;;10.04;46.55;99106.42;115432;1217;137134;-85
2021/10/26 17:24:47;;;;;;;0.10;0.10;;;;;;;9.99;46.78;99106.64;115476;1217;137159;-87
2021/10/26 17:27:22;;;;;;;0.10;0.10;;;;;;;9.94;46.56;99107.29;115457;1217;137529;-86
2021/10/26 17:30:10;;;;;;;0.20;0.20;;;;;;;9.91;46.81;99104.20;115463;1217;137707;-87
2021/10/26 17:32:40;;;;;;;0.10;0.10;;;;;;;9.87;47.04;99106.30;115459;1217;137113;-87
2021/10/26 17:35:49;;;;;;;0.10;0.10;;;;;;;9.85;46.78;99110.52;115593;1217;22934;-88
2021/10/26 17:38:34;;;;;;;0.20;0.20;;;;;;;9.81;47.28;99112.43;115447;1218;136644;-86
2021/10/26 17:44:02;;;;;;;0.10;0.10;;;;;;;9.77;47.21;99113.92;115488;1210;135321;-87
2021/10/26 17:47:08;;;;;;;0.10;0.10;;;;;;;9.74;47.55;99120.59;115465;1217;136849;-86
2021/10/26 17:50:33;;;;;;;0.20;0.20;;;;;;;9.70;47.78;99117.84;115454;1217;136514;-86
2021/10/26 17:54:00;;;;;;;0.20;0.20;;;;;;;9.65;47.95;99118.90;115433;1217;137042;-85
2021/10/26 17:57:08;;;;;;;0.10;0.10;;;;;;;9.59;47.59;99121.81;115434;1218;137260;-85
2021/10/26 18:00:34;;;;;;;0.10;0.10;;;;;;;9.53;47.88;99121.44;115412;1218;136838;-87
2021/10/26 18:04:01;;;;;;;0.20;0.20;;;;;;;9.46;48.53;99118.66;115474;1217;136605;-86
2021/10/26 18:06:43;;;;;;;0.00;0.00;;;;;;;9.41;48.22;99124.88;115450;1218;137142;-85
2021/10/26 18:09:09;;;;;;;0.10;0.10;;;;;;;9.38;48.42;99122.18;115345;1218;136782;-86
2021/10/26 18:12:02;;;;;;;0.10;0.10;;;;;;;9.34;48.32;99124.09;115368;1218;137329;-88
2021/10/26 18:15:14;;;;;;;0.10;0.10;;;;;;;9.29;48.29;99120.48;115420;1218;137759;-88
2021/10/26 18:17:44;;;;;;;0.10;0.10;;;;;;;9.24;48.51;99128.58;115420;1218;136773;-86
2021/10/26 18:21:09;;;;;;;0.10;0.10;;;;;;;9.19;49.05;99129.70;115378;1217;136865;-86
2021/10/26 18:24:38;;;;;;;0.10;0.10;;;;;;;9.12;49.05;99132.11;115458;1216;137236;-87
2021/10/26 18:28:04;;;;;;;0.10;0.10;;;;;;;9.05;49.36;99134.42;115479;1217;137415;-87
2021/10/26 18:31:31;;;;;;;0.10;0.10;;;;;;;8.98;48.97;99135.22;115489;1217;136632;-87
2021/10/26 18:34:57;;;;;;;0.10;0.10;;;;;;;8.91;49.35;99140.42;115474;1217;136797;-87
2021/10/26 18:38:23;;;;;;;0.20;0.20;;;;;;;8.82;49.44;99141.72;115450;1217;136766;-87
2021/10/26 18:41:18;;;;;;;0.10;0.10;;;;;;;8.76;49.65;99137.14;115492;1216;136395;-86
2021/10/26 18:44:46;;;;;;;0.10;0.10;;;;;;;8.70;49.90;99136.48;115458;1217;136780;-86
2021/10/26 18:47:26;;;;;;;0.00;0.00;;;;;;;8.63;49.99;99136.15;115565;1217;22194;-86
2021/10/26 18:55:47;;;;;;;0.10;0.10;;;;;;;8.48;50.54;99138.55;115567;1206;22319;-86
2021/10/26 18:58:14;;;;;;;0.10;0.10;;;;;;;8.44;50.55;99141.94;115373;1213;137035;-85
2021/10/26 19:00:45;;;;;;;0.10;0.10;;;;;;;8.41;50.49;99150.81;115425;1217;137130;-86
2021/10/26 19:03:15;;;;;;;;;;;;;;;8.37;50.77;99148.84;115437;1216;136971;-85
2021/10/26 19:06:24;;;;;;;0.10;0.10;;;;;;;8.32;50.75;99150.88;115463;1217;123839;-87
2021/10/26 19:09:50;;;;;;;0.00;0.00;;;;;;;8.26;51.19;99160.77;115500;1216;136647;-87
2021/10/26 19:13:15;;;;;;;0.10;0.10;;;;;;;8.21;51.01;99154.94;115482;1217;137229;-87
2021/10/26 19:16:41;;;;;;;0.00;0.00;;;;;;;8.16;51.58;99157.44;115494;1216;136886;-87
2021/10/26 19:19:29;;;;;;;0.10;0.10;;;;;;;8.11;51.86;99162.44;115497;1217;136872;-86
2021/10/26 19:22:34;;;;;;;0.10;0.10;;;;;;;8.08;51.79;99162.77;115460;1216;136952;-85
2021/10/26 19:25:06;;;;;;;0.10;0.10;;;;;;;8.05;51.88;99161.11;115493;1203;136891;-85
2021/10/26 19:28:12;;;;;;;0.00;0.00;;;;;;;8.04;52.01;99164.55;115456;1217;137239;-87
2021/10/26 19:31:10;;;;;;;0.10;0.10;;;;;;;8.02;52.30;99171.16;115499;1217;137154;-87
2021/10/26 19:33:36;;;;;;;0.10;0.10;;;;;;;8.03;51.90;99169.49;115492;1213;136763;-85
2021/10/26 19:36:09;;;;;;;0.20;0.20;;;;;;;8.03;51.95;99173.19;115400;1217;136836;-85
2021/10/26 19:38:37;;;;;;;0.10;0.10;;;;;;;8.03;52.21;99176.73;115424;1216;136934;-84
2021/10/26 19:41:03;;;;;;;0.10;0.10;;;;;;;8.04;52.24;99177.15;115592;1217;22334;-85
2021/10/26 19:44:12;;;;;;;0.10;0.10;;;;;;;8.04;52.40;99178.27;115534;1213;136793;-89
2021/10/26 19:46:43;;;;;;;0.00;0.00;;;;;;;8.04;52.48;99177.64;115500;1216;136569;-85
2021/10/26 19:49:09;;;;;;;0.10;0.10;;;;;;;8.05;52.59;99182.73;115402;1216;137259;-84
2021/10/26 19:51:35;;;;;;;0.10;0.10;;;;;;;8.03;52.25;99174.37;115451;1216;136843;-84
2021/10/26 19:54:01;;;;;;;0.10;0.10;;;;;;;8.03;52.70;99179.69;115482;1213;137213;-84
2021/10/26 19:56:27;;;;;;;0.10;0.10;;;;;;;8.01;52.68;99185.09;115482;1216;136749;-84
2021/10/26 19:58:52;;;;;;;0.10;0.10;;;;;;;7.99;52.87;99189.34;115509;1218;22219;-85
2021/10/26 20:01:18;;;;;;;0.10;0.10;;;;;;;7.97;52.74;99189.08;115490;1217;136472;-85
2021/10/26 20:03:45;;;;;;;0.10;0.10;;;;;;;7.95;52.75;99195.20;115468;1215;136633;-85
2021/10/26 20:06:11;;;;;;;0.10;0.10;;;;;;;7.93;53.25;99195.03;115468;1216;136849;-85
2021/10/26 20:09:16;;;;;;;0.10;0.10;;;;;;;7.90;53.15;99197.52;115441;1209;136795;-86
2021/10/26 20:12:09;;;;;;;0.10;0.10;;;;;;;7.86;53.37;99198.01;115451;1209;136830;-86
2021/10/26 20:15:03;;;;;;;0.10;0.10;;;;;;;7.83;52.97;99198.11;115422;1213;137263;-85
2021/10/26 20:17:29;;;;;;;0.10;0.10;;;;;;;7.81;53.05;99198.66;115494;1213;136805;-85
2021/10/26 20:20:19;;;;;;;0.00;0.00;;;;;;;7.79;53.40;99200.27;115541;1217;22290;-87
2021/10/26 20:26:34;;;;;;;0.10;0.10;;;;;;;7.73;53.86;99204.89;115446;1217;136310;-88
2021/10/26 20:29:09;;;;;;;0.10;0.10;;;;;;;7.70;53.91;99206.60;115495;1217;136605;-85
2021/10/26 20:31:35;;;;;;;0.10;0.10;;;;;;;7.67;53.41;99203.13;115514;1216;22337;-86
2021/10/26 20:34:22;;;;;;;0.10;0.10;;;;;;;7.65;53.71;99206.28;115470;1217;136799;-86
2021/10/26 20:37:29;;;;;;;0.10;0.10;;;;;;;7.64;54.19;99208.33;115479;1213;136656;-87
2021/10/26 20:40:55;;;;;;;0.00;0.00;;;;;;;7.60;54.41;99212.73;115504;1217;137410;-87
2021/10/26 20:44:21;;;;;;;0.10;0.10;;;;;;;7.57;54.32;99208.21;115512;1216;136742;-87
2021/10/26 20:47:47;;;;;;;0.10;0.10;;;;;;;7.54;54.54;99200.98;115523;1216;136461;-87
2021/10/26 20:51:16;;;;;;;0.00;0.00;;;;;;;7.50;54.96;99200.98;115524;1216;136932;-87
2021/10/26 20:54:40;;;;;;;0.00;0.00;;;;;;;7.48;54.70;99200.02;115512;1216;136795;-87
2021/10/26 20:58:05;;;;;;;0.00;0.00;;;;;;;7.46;54.99;99197.67;115527;1216;136974;-87
2021/10/26 21:01:37;;;;;;;0.00;0.00;;;;;;;7.44;55.07;99204.31;115531;1216;136816;-87
2021/10/26 21:05:03;;;;;;;0.10;0.10;;;;;;;7.40;54.89;99209.55;115511;1202;136969;-87
2021/10/26 21:08:30;;;;;;;0.10;0.10;;;;;;;7.33;55.48;99211.75;115581;1216;136669;-88
2021/10/26 21:11:55;;;;;;;0.00;0.00;;;;;;;7.28;55.45;99209.19;115578;1216;137473;-88
2021/10/26 21:15:21;;;;;;;0.10;0.10;;;;;;;7.24;55.49;99207.08;115589;1215;136927;-88
2021/10/26 21:18:27;;;;;;;0.10;0.10;;;;;;;7.21;55.86;99211.27;115557;1216;136759;-86
2021/10/26 21:21:15;;;;;;;0.10;0.10;;;;;;;7.18;55.74;99216.88;115451;1216;137449;-86
2021/10/26 21:24:09;;;;;;;0.10;0.10;;;;;;;7.14;55.64;99219.13;115478;1217;136929;-85
2021/10/26 21:27:15;;;;;;;0.10;0.10;;;;;;;7.10;56.08;99219.91;115477;1216;136794;-85
2021/10/26 21:30:40;;;;;;;0.10;0.10;;;;;;;7.05;56.09;99227.41;115478;1217;137293;-85
2021/10/26 21:34:19;;;;;;;0.10;0.10;;;;;;;7.00;56.21;99224.94;115469;1217;136557;-85
2021/10/26 21:40:20;;;;;;;0.00;0.00;;;;;;;6.91;56.18;99228.13;115447;1217;137218;-86
2021/10/26 21:43:45;;;;;;;0.10;0.10;;;;;;;6.88;56.35;99226.56;115456;1217;136630;-86
2021/10/26 21:46:31;;;;;;;0.10;0.10;;;;;;;6.86;56.50;99224.79;115465;1215;136738;-84
2021/10/26 21:48:57;;;;;;;0.10;0.10;;;;;;;6.83;56.53;99226.98;115428;1214;136802;-84
2021/10/26 21:51:23;;;;;;;0.10;0.10;;;;;;;6.82;56.52;99224.36;115459;1216;136561;-84
2021/10/26 21:53:50;;;;;;;0.00;0.00;;;;;;;6.81;56.38;99224.30;115510;1216;136947;-85
2021/10/26 21:56:17;;;;;;;0.10;0.10;;;;;;;6.80;56.71;99221.46;115568;1214;22243;-85
2021/10/26 21:58:44;;;;;;;0.10;0.10;;;;;;;6.79;57.19;99218.08;115627;1216;22286;-85
2021/10/26 22:01:11;;;;;;;0.10;0.10;;;;;;;6.79;56.81;99219.58;115515;1216;136854;-85
2021/10/26 22:03:37;;;;;;;0.10;0.10;;;;;;;6.78;56.90;99224.94;115478;1214;136751;-85
2021/10/26 22:06:25;;;;;;;0.10;0.10;;;;;;;6.75;57.46;99224.08;115447;1217;136880;-85
2021/10/26 22:08:51;;;;;;;0.10;0.10;;;;;;;6.72;57.66;99221.23;115440;1217;136976;-85
2021/10/26 22:11:17;;;;;;;0.10;0.10;;;;;;;6.69;57.45;99224.91;115569;1216;22282;-84
2021/10/26 22:13:42;;;;;;;0.00;0.00;;;;;;;6.70;57.34;99224.38;115495;1217;22173;-84
2021/10/26 22:16:08;;;;;;;0.10;0.10;;;;;;;6.73;57.49;99223.47;115476;1216;137345;-84
2021/10/26 22:18:39;;;;;;;0.10;0.10;;;;;;;6.78;58.29;99221.18;115478;1217;137667;-84
2021/10/26 22:21:08;;;;;;;0.00;0.00;;;;;;;6.83;58.44;99222.75;115432;1216;137206;-84
2021/10/26 22:23:35;;;;;;;0.10;0.10;;;;;;;6.87;58.36;99228.17;115478;1217;137346;-84
2021/10/26 22:26:01;;;;;;;0.10;0.10;;;;;;;6.92;58.15;99226.25;115556;1216;22199;-84
2021/10/26 22:28:26;;;;;;;0.10;0.10;;;;;;;6.94;58.16;99225.73;115504;1216;137552;-84
2021/10/26 22:30:52;;;;;;;0.10;0.10;;;;;;;6.94;58.15;99222.24;115439;1213;137079;-84
2021/10/26 22:33:19;;;;;;;0.10;0.10;;;;;;;6.93;57.62;99232.80;115474;1217;137527;-84
2021/10/26 22:35:45;;;;;;;0.10;0.10;;;;;;;6.92;57.78;99234.40;115485;1211;136949;-84
2021/10/26 22:38:11;;;;;;;0.10;0.10;;;;;;;6.92;57.89;99238.61;115557;1213;23301;-84
2021/10/26 22:40:37;;;;;;;0.00;0.00;;;;;;;6.91;57.86;99235.13;115507;1216;136576;-83
2021/10/26 22:43:04;;;;;;;0.00;0.00;;;;;;;6.90;57.96;99242.42;115485;1217;136874;-84
2021/10/26 22:45:29;;;;;;;0.10;0.10;;;;;;;6.89;57.78;99246.27;115459;1215;136921;-84
2021/10/26 22:47:56;;;;;;;0.00;0.00;;;;;;;6.89;57.99;99246.01;115458;1213;137236;-84
2021/10/26 22:50:22;;;;;;;0.10;0.10;;;;;;;6.87;58.10;99247.34;115460;1214;136840;-84
2021/10/26 22:52:47;;;;;;;0.10;0.10;;;;;;;6.86;58.33;99245.57;115615;1216;22186;-84
2021/10/26 22:55:13;;;;;;;0.10;0.10;;;;;;;6.84;58.28;99244.82;115509;1215;136739;-84
2021/10/26 22:57:38;;;;;;;0.10;0.10;;;;;;;6.82;58.44;99246.52;115480;1216;137012;-84
2021/10/26 23:00:06;;;;;;;0.10;0.10;;;;;;;6.82;58.24;99247.64;115446;1216;137014;-84
2021/10/26 23:02:33;;;;;;;0.10;0.10;;;;;;;6.82;58.07;99244.33;115459;1216;136763;-84
2021/10/26 23:04:59;;;;;;;0.10;0.10;;;;;;;6.82;58.16;99246.14;115599;1215;22341;-84
2021/10/26 23:07:24;;;;;;;0.10;0.10;;;;;;;6.81;58.18;99246.09;115547;1213;136556;-84
2021/10/26 23:09:50;;;;;;;0.10;0.10;;;;;;;6.80;58.33;99242.99;115495;1216;136654;-84
2021/10/26 23:12:15;;;;;;;0.10;0.10;;;;;;;6.80;58.30;99244.59;115543;1216;136586;-83
2021/10/26 23:14:41;;;;;;;0.00;0.00;;;;;;;6.79;58.53;99249.63;115487;1214;136837;-83
2021/10/26 23:17:07;;;;;;;0.10;0.10;;;;;;;6.77;58.58;99245.28;115568;1215;22373;-84
2021/10/26 23:19:33;;;;;;;0.10;0.10;;;;;;;6.76;58.52;99246.19;115486;1213;136555;-84
2021/10/26 23:21:59;;;;;;;0.00;0.00;;;;;;;6.75;58.54;99246.34;115447;1216;137003;-84
2021/10/26 23:24:27;;;;;;;0.10;0.10;;;;;;;6.73;58.85;99251.52;115528;1217;136662;-84
2021/10/26 23:26:53;;;;;;;0.10;0.10;;;;;;;6.72;58.76;99256.71;115511;1212;136820;-84
2021/10/26 23:29:20;;;;;;;0.00;0.00;;;;;;;6.71;58.81;99264.08;115471;1213;136836;-84
2021/10/26 23:31:46;;;;;;;0.10;0.10;;;;;;;6.69;58.69;99258.15;115592;1217;22737;-84
2021/10/26 23:34:52;;;;;;;0.00;0.00;;;;;;;6.68;58.72;99256.43;115482;1212;136699;-87
2021/10/26 23:37:33;;;;;;;0.10;0.10;;;;;;;6.65;58.79;99258.27;115516;1215;136558;-84
2021/10/26 23:39:59;;;;;;;0.00;0.00;;;;;;;6.63;58.74;99258.77;115500;1217;137080;-84
2021/10/26 23:42:24;;;;;;;0.10;0.10;;;;;;;6.61;58.81;99261.27;115468;1217;136984;-84
2021/10/26 23:44:50;;;;;;;0.10;0.10;;;;;;;6.59;59.10;99262.27;115487;1217;137014;-84
2021/10/26 23:47:16;;;;;;;0.00;0.00;;;;;;;6.58;58.98;99257.61;115652;1212;22950;-84
2021/10/26 23:49:42;;;;;;;0.10;0.10;;;;;;;6.58;58.92;99261.63;115399;1213;136971;-85
2021/10/26 23:52:08;;;;;;;0.00;0.00;;;;;;;6.57;58.77;99261.48;115416;1215;136634;-85
2021/10/26 23:54:33;;;;;;;0.00;0.00;;;;;;;6.56;58.84;99271.27;115489;1216;136690;-85
2021/10/26 23:57:20;;;;;;;0.00;0.00;;;;;;;6.55;58.91;99267.66;115505;1216;137310;-85
